createdAt,value
2019-05-16T00:00:08.367Z,1015.52
2019-05-16T00:01:09.324Z,1015.52
2019-05-16T00:02:08.142Z,1015.49
2019-05-16T00:03:07.986Z,1015.48
2019-05-16T00:04:08.657Z,1015.45
2019-05-16T00:05:08.358Z,1015.43
2019-05-16T00:06:08.536Z,1015.4
2019-05-16T00:07:08.131Z,1015.34
2019-05-16T00:08:12.323Z,1015.32
2019-05-16T00:09:08.034Z,1015.29
2019-05-16T00:10:08.338Z,1015.28
2019-05-16T00:11:08.545Z,1015.28
2019-05-16T00:12:08.703Z,1015.25
2019-05-16T00:13:08.475Z,1015.25
2019-05-16T00:14:08.312Z,1015.22
2019-05-16T00:15:08.957Z,1015.17
2019-05-16T00:16:08.060Z,1015.22
2019-05-16T00:17:08.309Z,1015.21
2019-05-16T00:18:08.685Z,1015.2
2019-05-16T00:19:08.992Z,1015.13
2019-05-16T00:20:09.179Z,1015.14
2019-05-16T00:21:08.682Z,1015.13
2019-05-16T00:22:08.671Z,1015.13
2019-05-16T00:23:08.038Z,1015.05
2019-05-16T00:24:08.302Z,1015.03
2019-05-16T00:25:08.609Z,1015.04
2019-05-16T00:27:08.418Z,1014.94
2019-05-16T00:28:08.910Z,1014.93
2019-05-16T00:29:08.200Z,1014.9
2019-05-16T00:30:08.810Z,1014.91
2019-05-16T00:31:08.571Z,1014.85
2019-05-16T00:32:08.540Z,1014.86
2019-05-16T00:33:08.413Z,1014.83
2019-05-16T00:34:09.538Z,1014.85
2019-05-16T00:35:09.117Z,1014.83
2019-05-16T00:36:09.105Z,1014.81
2019-05-16T00:37:08.613Z,1014.8
2019-05-16T00:38:08.804Z,1014.77
2019-05-16T00:39:08.496Z,1014.75
2019-05-16T00:40:08.437Z,1014.73
2019-05-16T00:41:08.537Z,1014.72
2019-05-16T00:43:08.352Z,1014.67
2019-05-16T00:44:08.626Z,1014.69
2019-05-16T00:45:09.088Z,1014.67
2019-05-16T00:46:08.416Z,1014.61
2019-05-16T00:47:08.783Z,1014.64
2019-05-16T00:48:08.936Z,1014.58
2019-05-16T00:49:08.548Z,1014.62
2019-05-16T00:50:08.800Z,1014.57
2019-05-16T00:51:08.492Z,1014.54
2019-05-16T00:52:08.508Z,1014.52
2019-05-16T00:53:09.089Z,1014.49
2019-05-16T00:54:08.545Z,1014.48
2019-05-16T00:55:08.665Z,1014.47
2019-05-16T00:56:08.578Z,1014.42
2019-05-16T00:57:08.745Z,1014.48
2019-05-16T00:59:08.630Z,1014.35
2019-05-16T01:00:08.649Z,1014.36
2019-05-16T01:01:08.764Z,1014.31
2019-05-16T01:02:08.941Z,1014.32
2019-05-16T01:03:08.700Z,1014.25
2019-05-16T01:04:08.719Z,1014.24
2019-05-16T01:05:08.845Z,1014.22
2019-05-16T01:06:16.451Z,1014.21
2019-05-16T01:07:08.770Z,1014.2
2019-05-16T01:08:08.788Z,1014.17
2019-05-16T01:09:08.874Z,1014.18
2019-05-16T01:10:09.151Z,1014.19
2019-05-16T01:11:08.840Z,1014.16
2019-05-16T01:12:08.858Z,1014.11
2019-05-16T01:13:08.874Z,1014.15
2019-05-16T01:15:08.910Z,1014.14
2019-05-16T01:16:08.928Z,1014.08
2019-05-16T01:17:08.944Z,1014.09
2019-05-16T01:18:08.962Z,1014.09
2019-05-16T01:19:08.980Z,1014.02
2019-05-16T01:20:08.996Z,1013.97
2019-05-16T01:21:09.014Z,1013.96
2019-05-16T01:22:09.031Z,1013.92
2019-05-16T01:23:09.049Z,1013.94
2019-05-16T01:24:09.066Z,1013.91
2019-05-16T01:25:09.672Z,1013.94
2019-05-16T01:26:09.101Z,1013.86
2019-05-16T01:27:09.118Z,1013.91
2019-05-16T01:28:09.136Z,1013.85
2019-05-16T01:30:09.373Z,1013.84
2019-05-16T01:31:09.189Z,1013.82
2019-05-16T01:32:09.206Z,1013.75
2019-05-16T01:33:09.223Z,1013.73
2019-05-16T01:34:09.241Z,1013.77
2019-05-16T01:35:09.257Z,1013.76
2019-05-16T01:36:09.275Z,1013.72
2019-05-16T01:37:09.293Z,1013.71
2019-05-16T01:38:09.310Z,1013.68
2019-05-16T01:39:09.327Z,1013.67
2019-05-16T01:40:09.344Z,1013.61
2019-05-16T01:41:09.362Z,1013.64
2019-05-16T01:42:09.384Z,1013.65
2019-05-16T01:43:09.397Z,1013.6
2019-05-16T01:44:09.414Z,1013.63
2019-05-16T01:45:09.435Z,1013.59
2019-05-16T01:46:09.448Z,1013.62
2019-05-16T01:47:09.466Z,1013.56
2019-05-16T01:48:09.482Z,1013.49
2019-05-16T01:49:09.499Z,1013.47
2019-05-16T01:50:09.518Z,1013.46
2019-05-16T01:51:09.534Z,1013.47
2019-05-16T01:52:09.552Z,1013.47
2019-05-16T01:53:09.568Z,1013.41
2019-05-16T01:54:09.587Z,1013.41
2019-05-16T01:55:09.603Z,1013.41
2019-05-16T01:56:09.625Z,1013.39
2019-05-16T01:57:09.637Z,1013.4
2019-05-16T01:58:09.661Z,1013.32
2019-05-16T01:59:09.673Z,1013.3
2019-05-16T02:00:09.690Z,1013.25
2019-05-16T02:02:09.730Z,1013.19
2019-05-16T02:03:09.742Z,1013.15
2019-05-16T02:04:12.152Z,1013.19
2019-05-16T02:05:09.781Z,1013.19
2019-05-16T02:06:09.793Z,1013.15
2019-05-16T02:07:09.811Z,1013.15
2019-05-16T02:08:09.829Z,1013.09
2019-05-16T02:09:11.418Z,1013.1
2019-05-16T02:10:09.863Z,1013.16
2019-05-16T02:11:09.879Z,1013.07
2019-05-16T02:12:10.720Z,1013.11
2019-05-16T02:13:09.914Z,1013.12
2019-05-16T02:14:09.932Z,1013.13
2019-05-16T02:15:09.953Z,1013.1
2019-05-16T02:16:09.966Z,1013.1
2019-05-16T02:18:10.002Z,1013.11
2019-05-16T02:19:10.018Z,1013.1
2019-05-16T02:20:10.035Z,1013.16
2019-05-16T02:21:10.055Z,1013.13
2019-05-16T02:22:10.073Z,1013.16
2019-05-16T02:23:10.088Z,1013.15
2019-05-16T02:24:10.104Z,1013.13
2019-05-16T02:25:10.121Z,1013.12
2019-05-16T02:26:10.138Z,1013.1
2019-05-16T02:27:10.179Z,1013.12
2019-05-16T02:28:10.174Z,1013.06
2019-05-16T02:29:13.566Z,1013.08
2019-05-16T02:30:12.334Z,1013.08
2019-05-16T02:31:11.864Z,1013.03
2019-05-16T02:32:11.463Z,1013.04
2019-05-16T02:34:11.791Z,1013.03
2019-05-16T02:35:11.638Z,1013
2019-05-16T02:36:11.035Z,1012.98
2019-05-16T02:37:23.347Z,1012.95
2019-05-16T02:38:11.333Z,1012.97
2019-05-16T02:39:11.141Z,1012.92
2019-05-16T02:40:11.889Z,1012.95
2019-05-16T02:41:10.673Z,1012.94
2019-05-16T02:42:11.800Z,1012.94
2019-05-16T02:43:12.423Z,1012.9
2019-05-16T02:44:11.970Z,1012.94
2019-05-16T02:45:11.063Z,1012.89
2019-05-16T02:46:11.866Z,1012.91
2019-05-16T02:47:10.897Z,1012.88
2019-05-16T02:48:11.083Z,1012.85
2019-05-16T02:50:12.123Z,1012.79
2019-05-16T02:51:11.107Z,1012.81
2019-05-16T02:52:11.021Z,1012.8
2019-05-16T02:53:12.744Z,1012.76
2019-05-16T02:54:11.111Z,1012.75
2019-05-16T02:55:11.572Z,1012.73
2019-05-16T02:56:12.114Z,1012.73
2019-05-16T02:57:11.327Z,1012.73
2019-05-16T02:58:11.414Z,1012.72
2019-05-16T02:59:11.833Z,1012.7
2019-05-16T03:00:12.052Z,1012.71
2019-05-16T03:01:10.994Z,1012.72
2019-05-16T03:02:11.483Z,1012.72
2019-05-16T03:03:11.904Z,1012.61
2019-05-16T03:05:11.945Z,1012.63
2019-05-16T03:06:11.233Z,1012.63
2019-05-16T03:07:11.651Z,1012.6
2019-05-16T03:08:11.915Z,1012.61
2019-05-16T03:09:11.372Z,1012.6
2019-05-16T03:10:11.216Z,1012.58
2019-05-16T03:11:11.797Z,1012.58
2019-05-16T03:12:10.935Z,1012.54
2019-05-16T03:13:11.375Z,1012.58
2019-05-16T03:14:11.261Z,1012.52
2019-05-16T03:15:11.155Z,1012.51
2019-05-16T03:16:11.903Z,1012.61
2019-05-16T03:17:11.433Z,1012.59
2019-05-16T03:18:11.674Z,1012.51
2019-05-16T03:19:11.373Z,1012.52
2019-05-16T03:20:11.074Z,1012.48
2019-05-16T03:21:11.316Z,1012.47
2019-05-16T03:22:11.726Z,1012.48
2019-05-16T03:23:11.634Z,1012.46
2019-05-16T03:24:11.476Z,1012.48
2019-05-16T03:25:11.809Z,1012.44
2019-05-16T03:26:11.832Z,1012.43
2019-05-16T03:27:11.209Z,1012.44
2019-05-16T03:28:11.350Z,1012.49
2019-05-16T03:29:11.495Z,1012.4
2019-05-16T03:30:15.211Z,1012.42
2019-05-16T03:31:14.710Z,1012.43
2019-05-16T03:32:13.822Z,1012.43
2019-05-16T03:33:16.764Z,1012.4
2019-05-16T03:34:18.864Z,1012.39
2019-05-16T03:35:17.626Z,1012.41
2019-05-16T03:36:17.195Z,1012.47
2019-05-16T03:37:17.214Z,1012.33
2019-05-16T03:38:17.231Z,1012.35
2019-05-16T03:39:17.251Z,1012.37
2019-05-16T03:40:17.264Z,1012.36
2019-05-16T03:41:17.282Z,1012.36
2019-05-16T03:42:20.239Z,1012.36
2019-05-16T03:43:17.315Z,1012.31
2019-05-16T03:44:20.770Z,1012.29
2019-05-16T03:45:17.350Z,1012.26
2019-05-16T03:46:17.367Z,1012.31
2019-05-16T03:48:20.945Z,1012.26
2019-05-16T03:49:17.423Z,1012.25
2019-05-16T03:50:17.436Z,1012.26
2019-05-16T03:51:17.455Z,1012.22
2019-05-16T03:52:20.523Z,1012.26
2019-05-16T03:53:20.683Z,1012.22
2019-05-16T03:54:20.875Z,1012.27
2019-05-16T03:55:17.524Z,1012.25
2019-05-16T03:56:17.540Z,1012.22
2019-05-16T03:57:20.870Z,1012.22
2019-05-16T03:58:22.064Z,1012.21
2019-05-16T03:59:17.591Z,1012.18
2019-05-16T04:00:20.886Z,1012.17
2019-05-16T04:01:20.829Z,1012.14
2019-05-16T04:02:17.645Z,1012.13
2019-05-16T04:04:20.644Z,1012.11
2019-05-16T04:05:20.952Z,1012.1
2019-05-16T04:06:17.712Z,1012.07
2019-05-16T04:07:21.174Z,1012.08
2019-05-16T04:08:20.393Z,1012.06
2019-05-16T04:09:20.841Z,1012.08
2019-05-16T04:10:17.784Z,1012.06
2019-05-16T04:11:22.220Z,1012.1
2019-05-16T04:12:17.817Z,1012.09
2019-05-16T04:13:20.980Z,1012.04
2019-05-16T04:14:21.155Z,1012.05
2019-05-16T04:15:17.868Z,1012.12
2019-05-16T04:16:20.704Z,1012.04
2019-05-16T04:17:20.929Z,1012.07
2019-05-16T04:18:17.919Z,1012.06
2019-05-16T04:20:21.224Z,1012.04
2019-05-16T04:21:21.557Z,1012.08
2019-05-16T04:22:21.249Z,1012.09
2019-05-16T04:23:20.519Z,1012.08
2019-05-16T04:24:21.364Z,1012.04
2019-05-16T04:25:18.041Z,1012.03
2019-05-16T04:26:21.372Z,1012
2019-05-16T04:27:21.190Z,1011.98
2019-05-16T04:28:21.295Z,1011.95
2019-05-16T04:29:20.629Z,1011.99
2019-05-16T04:30:21.650Z,1011.99
2019-05-16T04:31:21.700Z,1011.97
2019-05-16T04:32:20.788Z,1012
2019-05-16T04:33:21.547Z,1011.99
2019-05-16T04:34:20.606Z,1012.01
2019-05-16T04:36:21.055Z,1011.99
2019-05-16T04:37:21.480Z,1012
2019-05-16T04:38:31.397Z,1011.96
2019-05-16T04:39:20.828Z,1011.98
2019-05-16T04:40:21.638Z,1011.94
2019-05-16T04:41:21.055Z,1011.97
2019-05-16T04:42:21.284Z,1012.02
2019-05-16T04:43:21.558Z,1011.93
2019-05-16T04:44:21.030Z,1011.95
2019-05-16T04:45:21.056Z,1011.87
2019-05-16T04:46:21.255Z,1011.91
2019-05-16T04:47:21.012Z,1011.93
2019-05-16T04:48:21.791Z,1011.9
2019-05-16T04:49:21.171Z,1011.91
2019-05-16T04:51:21.576Z,1011.92
2019-05-16T04:52:21.469Z,1011.89
2019-05-16T04:53:20.673Z,1011.91
2019-05-16T04:54:21.314Z,1011.89
2019-05-16T04:55:20.999Z,1011.88
2019-05-16T04:56:21.479Z,1011.87
2019-05-16T04:57:20.878Z,1011.89
2019-05-16T04:58:23.089Z,1011.87
2019-05-16T04:59:20.753Z,1011.88
2019-05-16T05:00:21.120Z,1011.87
2019-05-16T05:01:21.338Z,1011.9
2019-05-16T05:02:21.254Z,1011.87
2019-05-16T05:03:20.855Z,1011.81
2019-05-16T05:04:21.088Z,1011.79
2019-05-16T05:05:21.433Z,1011.81
2019-05-16T05:06:20.748Z,1011.84
2019-05-16T05:07:20.629Z,1011.83
2019-05-16T05:08:21.790Z,1011.84
2019-05-16T05:09:20.846Z,1011.84
2019-05-16T05:10:20.609Z,1011.82
2019-05-16T05:11:21.455Z,1011.82
2019-05-16T05:12:20.739Z,1011.79
2019-05-16T05:13:21.889Z,1011.81
2019-05-16T05:14:21.157Z,1011.75
2019-05-16T05:15:21.217Z,1011.71
2019-05-16T05:16:20.239Z,1011.68
2019-05-16T05:17:21.002Z,1011.67
2019-05-16T05:18:21.115Z,1011.68
2019-05-16T05:19:20.207Z,1011.73
2019-05-16T05:20:20.978Z,1011.72
2019-05-16T05:21:20.859Z,1011.73
2019-05-16T05:23:20.888Z,1011.79
2019-05-16T05:24:19.679Z,1011.79
2019-05-16T05:25:20.373Z,1011.75
2019-05-16T05:26:19.951Z,1011.83
2019-05-16T05:27:19.712Z,1011.83
2019-05-16T05:28:20.925Z,1011.81
2019-05-16T05:29:20.006Z,1011.8
2019-05-16T05:30:19.750Z,1011.85
2019-05-16T05:31:24.547Z,1011.79
2019-05-16T05:32:19.987Z,1011.77
2019-05-16T05:33:20.894Z,1011.8
2019-05-16T05:34:19.848Z,1011.74
2019-05-16T05:35:20.509Z,1011.76
2019-05-16T05:36:20.971Z,1011.75
2019-05-16T05:37:20.377Z,1011.76
2019-05-16T05:39:19.995Z,1011.78
2019-05-16T05:40:20.035Z,1011.71
2019-05-16T05:41:19.842Z,1011.76
2019-05-16T05:42:19.875Z,1011.76
2019-05-16T05:43:21.416Z,1011.79
2019-05-16T05:44:20.303Z,1011.81
2019-05-16T05:45:20.080Z,1011.77
2019-05-16T05:46:20.417Z,1011.8
2019-05-16T05:47:20.053Z,1011.76
2019-05-16T05:48:21.478Z,1011.75
2019-05-16T05:49:20.442Z,1011.77
2019-05-16T05:50:20.117Z,1011.76
2019-05-16T05:51:20.668Z,1011.75
2019-05-16T05:52:20.745Z,1011.76
2019-05-16T05:53:20.704Z,1011.71
2019-05-16T05:55:20.143Z,1011.69
2019-05-16T05:56:19.826Z,1011.75
2019-05-16T05:57:20.846Z,1011.72
2019-05-16T05:58:20.520Z,1011.76
2019-05-16T05:59:20.201Z,1011.76
2019-05-16T06:00:21.002Z,1011.69
2019-05-16T06:01:20.428Z,1011.67
2019-05-16T06:02:20.096Z,1011.69
2019-05-16T06:03:22.115Z,1011.67
2019-05-16T06:04:19.873Z,1011.69
2019-05-16T06:05:20.254Z,1011.64
2019-05-16T06:06:20.977Z,1011.69
2019-05-16T06:07:20.461Z,1011.72
2019-05-16T06:08:20.186Z,1011.67
2019-05-16T06:09:28.186Z,1011.67
2019-05-16T06:11:20.457Z,1011.66
2019-05-16T06:12:21.197Z,1011.68
2019-05-16T06:13:20.721Z,1011.68
2019-05-16T06:14:21.186Z,1011.64
2019-05-16T06:15:20.375Z,1011.67
2019-05-16T06:16:20.507Z,1011.64
2019-05-16T06:17:20.270Z,1011.6
2019-05-16T06:18:20.299Z,1011.61
2019-05-16T06:19:20.459Z,1011.67
2019-05-16T06:20:20.270Z,1011.69
2019-05-16T06:21:20.506Z,1011.66
2019-05-16T06:22:20.596Z,1011.68
2019-05-16T06:23:20.829Z,1011.64
2019-05-16T06:24:20.369Z,1011.61
2019-05-16T06:26:20.547Z,1011.52
2019-05-16T06:27:20.854Z,1011.57
2019-05-16T06:28:21.054Z,1011.52
2019-05-16T06:29:20.524Z,1011.48
2019-05-16T06:30:21.267Z,1011.47
2019-05-16T06:31:21.999Z,1011.48
2019-05-16T06:32:20.278Z,1011.51
2019-05-16T06:33:20.429Z,1011.53
2019-05-16T06:34:20.897Z,1011.52
2019-05-16T06:35:23.668Z,1011.54
2019-05-16T06:36:20.565Z,1011.52
2019-05-16T06:37:20.647Z,1011.55
2019-05-16T06:38:21.149Z,1011.51
2019-05-16T06:39:20.403Z,1011.51
2019-05-16T06:40:20.437Z,1011.52
2019-05-16T06:41:20.439Z,1011.51
2019-05-16T06:42:20.724Z,1011.57
2019-05-16T06:43:20.761Z,1011.5
2019-05-16T06:44:20.494Z,1011.49
2019-05-16T06:45:20.679Z,1011.47
2019-05-16T06:46:20.530Z,1011.46
2019-05-16T06:47:22.948Z,1011.47
2019-05-16T06:48:21.347Z,1011.5
2019-05-16T06:49:20.582Z,1011.53
2019-05-16T06:50:21.051Z,1011.5
2019-05-16T06:51:20.621Z,1011.49
2019-05-16T06:52:20.637Z,1011.46
2019-05-16T06:53:21.016Z,1011.45
2019-05-16T06:54:20.862Z,1011.46
2019-05-16T06:55:20.692Z,1011.42
2019-05-16T06:56:20.711Z,1011.46
2019-05-16T06:58:22.128Z,1011.36
2019-05-16T06:59:20.763Z,1011.34
2019-05-16T07:00:21.199Z,1011.36
2019-05-16T07:01:21.065Z,1011.35
2019-05-16T07:02:29.794Z,1011.33
2019-05-16T07:03:20.953Z,1011.37
2019-05-16T07:04:20.852Z,1011.35
2019-05-16T07:05:21.106Z,1011.32
2019-05-16T07:06:38.012Z,1011.32
2019-05-16T07:07:20.906Z,1011.27
2019-05-16T07:08:21.166Z,1011.29
2019-05-16T07:09:20.945Z,1011.26
2019-05-16T07:10:20.960Z,1011.27
2019-05-16T07:11:20.978Z,1011.28
2019-05-16T07:12:21.002Z,1011.26
2019-05-16T07:14:22.720Z,1011.29
2019-05-16T07:15:21.050Z,1011.27
2019-05-16T07:16:21.068Z,1011.29
2019-05-16T07:17:21.087Z,1011.33
2019-05-16T07:18:21.397Z,1011.27
2019-05-16T07:19:21.123Z,1011.28
2019-05-16T07:20:21.295Z,1011.29
2019-05-16T07:21:21.160Z,1011.26
2019-05-16T07:22:21.176Z,1011.25
2019-05-16T07:23:21.430Z,1011.3
2019-05-16T07:24:21.212Z,1011.25
2019-05-16T07:25:21.234Z,1011.26
2019-05-16T07:26:21.248Z,1011.27
2019-05-16T07:27:21.769Z,1011.33
2019-05-16T07:28:21.362Z,1011.31
2019-05-16T07:30:21.321Z,1011.3
2019-05-16T07:31:22.483Z,1011.28
2019-05-16T07:32:21.357Z,1011.28
2019-05-16T07:33:21.508Z,1011.27
2019-05-16T07:34:21.392Z,1011.3
2019-05-16T07:35:21.419Z,1011.27
2019-05-16T07:36:21.428Z,1011.29
2019-05-16T07:37:21.447Z,1011.31
2019-05-16T07:38:21.464Z,1011.29
2019-05-16T07:39:21.482Z,1011.26
2019-05-16T07:40:26.397Z,1011.29
2019-05-16T07:41:21.558Z,1011.29
2019-05-16T07:42:21.538Z,1011.25
2019-05-16T07:43:21.565Z,1011.21
2019-05-16T07:44:21.571Z,1011.12
2019-05-16T07:46:21.611Z,1011.11
2019-05-16T07:47:21.626Z,1011.08
2019-05-16T07:48:22.196Z,1011.09
2019-05-16T07:49:21.661Z,1011.11
2019-05-16T07:50:21.680Z,1011.08
2019-05-16T07:51:21.697Z,1011.08
2019-05-16T07:52:21.715Z,1011.06
2019-05-16T07:53:21.823Z,1011.05
2019-05-16T07:54:21.752Z,1011.04
2019-05-16T07:55:21.776Z,1011.08
2019-05-16T07:56:21.793Z,1011.03
2019-05-16T07:57:22.882Z,1011.09
2019-05-16T07:58:22.312Z,1011.09
2019-05-16T07:59:21.844Z,1011.06
2019-05-16T08:01:21.879Z,1011.06
2019-05-16T08:02:21.901Z,1011.04
2019-05-16T08:03:21.928Z,1010.98
2019-05-16T08:04:21.937Z,1010.96
2019-05-16T08:05:21.952Z,1010.96
2019-05-16T08:06:21.969Z,1010.95
2019-05-16T08:07:21.988Z,1010.94
2019-05-16T08:08:23.977Z,1010.95
2019-05-16T08:09:22.023Z,1011
2019-05-16T08:10:36.306Z,1010.98
2019-05-16T08:11:23.575Z,1010.95
2019-05-16T08:12:25.957Z,1011
2019-05-16T08:13:22.097Z,1010.98
2019-05-16T08:15:33.453Z,1011
2019-05-16T08:16:33.470Z,1010.99
2019-05-16T08:17:33.496Z,1010.92
2019-05-16T08:18:33.507Z,1010.94
2019-05-16T08:19:33.526Z,1010.99
2019-05-16T08:20:33.544Z,1010.94
2019-05-16T08:21:33.562Z,1010.95
2019-05-16T08:22:33.580Z,1010.98
2019-05-16T08:23:33.605Z,1010.97
2019-05-16T08:24:36.145Z,1011.03
2019-05-16T08:26:51.946Z,1010.99
2019-05-16T08:27:52.269Z,1011.04
2019-05-16T08:28:51.981Z,1011
2019-05-16T08:31:04.677Z,1010.92
2019-05-16T08:32:04.693Z,1010.96
2019-05-16T08:33:04.711Z,1011
2019-05-16T08:36:32.457Z,1010.97
2019-05-16T08:37:38.256Z,1010.98
2019-05-16T08:38:32.493Z,1010.9
2019-05-16T08:39:32.511Z,1010.95
2019-05-16T08:40:32.529Z,1010.92
2019-05-16T08:41:32.548Z,1010.9
2019-05-16T08:42:32.641Z,1010.92
2019-05-16T08:43:32.585Z,1010.91
2019-05-16T08:44:32.700Z,1010.88
2019-05-16T08:45:32.620Z,1010.92
2019-05-16T08:46:32.653Z,1010.91
2019-05-16T08:47:32.676Z,1010.91
2019-05-16T08:48:32.678Z,1010.95
2019-05-16T08:50:15.162Z,1010.89
2019-05-16T08:51:15.131Z,1010.89
2019-05-16T08:53:33.259Z,1010.88
2019-05-16T08:54:33.278Z,1010.83
2019-05-16T08:55:33.295Z,1010.86
2019-05-16T08:56:33.313Z,1010.88
2019-05-16T08:57:33.604Z,1010.86
2019-05-16T08:59:34.050Z,1010.85
2019-05-16T09:02:03.999Z,1010.82
2019-05-16T09:03:03.970Z,1010.77
2019-05-16T09:04:03.969Z,1010.72
2019-05-16T09:05:05.469Z,1010.75
2019-05-16T09:06:04.009Z,1010.79
2019-05-16T09:07:04.174Z,1010.77
2019-05-16T09:08:04.094Z,1010.79
2019-05-16T09:11:52.411Z,1010.77
2019-05-16T09:12:52.419Z,1010.76
2019-05-16T09:13:52.457Z,1010.71
2019-05-16T09:14:52.456Z,1010.72
2019-05-16T09:15:52.473Z,1010.67
2019-05-16T09:16:52.492Z,1010.69
2019-05-16T09:17:52.510Z,1010.64
2019-05-16T09:18:52.563Z,1010.67
2019-05-16T09:19:52.547Z,1010.68
2019-05-16T09:20:52.574Z,1010.68
2019-05-16T09:21:52.584Z,1010.68
2019-05-16T09:22:52.602Z,1010.61
2019-05-16T09:23:52.626Z,1010.63
2019-05-16T09:24:52.642Z,1010.64
2019-05-16T09:25:52.657Z,1010.61
2019-05-16T09:27:52.708Z,1010.65
2019-05-16T09:28:52.712Z,1010.65
2019-05-16T09:29:52.730Z,1010.65
2019-05-16T09:30:52.749Z,1010.63
2019-05-16T09:32:07.657Z,1010.63
2019-05-16T09:32:52.785Z,1010.59
2019-05-16T09:33:52.805Z,1010.58
2019-05-16T09:34:52.822Z,1010.5
2019-05-16T09:35:52.841Z,1010.46
2019-05-16T09:36:56.510Z,1010.5
2019-05-16T09:37:52.876Z,1010.5
2019-05-16T09:38:52.896Z,1010.56
2019-05-16T09:39:52.914Z,1010.53
2019-05-16T09:40:52.937Z,1010.53
2019-05-16T09:41:55.442Z,1010.5
2019-05-16T09:43:52.988Z,1010.53
2019-05-16T09:44:53.017Z,1010.53
2019-05-16T09:45:57.414Z,1010.52
2019-05-16T09:46:53.042Z,1010.5
2019-05-16T09:47:53.061Z,1010.47
2019-05-16T09:49:12.791Z,1010.47
2019-05-16T09:49:53.097Z,1010.46
2019-05-16T09:50:53.115Z,1010.44
2019-05-16T09:51:53.135Z,1010.46
2019-05-16T09:52:53.155Z,1010.44
2019-05-16T09:53:53.171Z,1010.39
2019-05-16T09:54:53.191Z,1010.4
2019-05-16T09:55:53.217Z,1010.41
2019-05-16T09:56:53.227Z,1010.38
2019-05-16T09:58:53.264Z,1010.46
2019-05-16T09:59:53.282Z,1010.44
2019-05-16T10:00:53.302Z,1010.53
2019-05-16T10:01:53.322Z,1010.54
2019-05-16T10:02:53.342Z,1010.49
2019-05-16T10:03:53.355Z,1010.53
2019-05-16T10:04:53.374Z,1010.57
2019-05-16T10:05:53.409Z,1010.56
2019-05-16T10:06:53.412Z,1010.54
2019-05-16T10:07:53.429Z,1010.51
2019-05-16T10:08:53.447Z,1010.48
2019-05-16T10:09:53.466Z,1010.44
2019-05-16T10:10:53.483Z,1010.42
2019-05-16T10:12:06.848Z,1010.43
2019-05-16T10:12:53.520Z,1010.36
2019-05-16T10:13:53.541Z,1010.35
2019-05-16T10:14:53.557Z,1010.37
2019-05-16T10:15:53.576Z,1010.42
2019-05-16T10:16:53.595Z,1010.37
2019-05-16T10:17:53.613Z,1010.42
2019-05-16T10:18:53.632Z,1010.4
2019-05-16T10:19:53.650Z,1010.39
2019-05-16T10:20:53.669Z,1010.4
2019-05-16T10:21:53.686Z,1010.44
2019-05-16T10:22:53.707Z,1010.48
2019-05-16T10:23:53.724Z,1010.45
2019-05-16T10:24:53.744Z,1010.42
2019-05-16T10:25:53.761Z,1010.41
2019-05-16T10:26:54.293Z,1010.45
2019-05-16T10:27:53.798Z,1010.43
2019-05-16T10:28:53.819Z,1010.41
2019-05-16T10:30:56.640Z,1010.36
2019-05-16T10:31:53.874Z,1010.37
2019-05-16T10:32:53.893Z,1010.43
2019-05-16T10:33:53.916Z,1010.42
2019-05-16T10:34:53.931Z,1010.44
2019-05-16T10:35:53.951Z,1010.42
2019-05-16T10:36:53.968Z,1010.44
2019-05-16T10:37:53.988Z,1010.41
2019-05-16T10:38:54.006Z,1010.42
2019-05-16T10:39:56.255Z,1010.44
2019-05-16T10:40:56.464Z,1010.41
2019-05-16T10:41:54.063Z,1010.38
2019-05-16T10:42:54.083Z,1010.3
2019-05-16T10:43:54.100Z,1010.32
2019-05-16T10:44:54.122Z,1010.26
2019-05-16T10:46:54.159Z,1010.3
2019-05-16T10:47:54.177Z,1010.27
2019-05-16T10:48:54.199Z,1010.27
2019-05-16T10:49:56.300Z,1010.28
2019-05-16T10:50:54.342Z,1010.25
2019-05-16T10:51:54.254Z,1010.27
2019-05-16T10:53:13.611Z,1010.31
2019-05-16T10:54:19.107Z,1010.26
2019-05-16T10:55:18.909Z,1010.26
2019-05-16T10:56:18.903Z,1010.22
2019-05-16T10:58:35.272Z,1010.23
2019-05-16T11:00:46.764Z,1010.22
2019-05-16T11:01:36.548Z,1010.16
2019-05-16T11:02:36.415Z,1010.18
2019-05-16T11:03:34.291Z,1010.17
2019-05-16T11:04:50.614Z,1010.2
2019-05-16T11:05:40.035Z,1010.19
2019-05-16T11:06:40.048Z,1010.25
2019-05-16T11:07:40.169Z,1010.28
2019-05-16T11:08:40.095Z,1010.28
2019-05-16T11:09:53.435Z,1010.31
2019-05-16T11:10:40.161Z,1010.29
2019-05-16T11:11:40.146Z,1010.29
2019-05-16T11:12:49.790Z,1010.3
2019-05-16T11:13:40.184Z,1010.3
2019-05-16T11:14:40.203Z,1010.29
2019-05-16T11:15:40.222Z,1010.27
2019-05-16T11:16:40.365Z,1010.28
2019-05-16T11:17:40.263Z,1010.29
2019-05-16T11:18:40.282Z,1010.27
2019-05-16T11:19:40.309Z,1010.29
2019-05-16T11:20:40.344Z,1010.27
2019-05-16T11:21:40.345Z,1010.25
2019-05-16T11:22:40.357Z,1010.28
2019-05-16T11:23:40.377Z,1010.27
2019-05-16T11:24:40.445Z,1010.26
2019-05-16T11:25:40.417Z,1010.28
2019-05-16T11:26:40.436Z,1010.3
2019-05-16T11:27:40.455Z,1010.27
2019-05-16T11:28:40.476Z,1010.25
2019-05-16T11:29:40.494Z,1010.27
2019-05-16T11:31:40.537Z,1010.29
2019-05-16T11:32:40.553Z,1010.2
2019-05-16T11:33:40.572Z,1010.2
2019-05-16T11:34:40.591Z,1010.21
2019-05-16T11:35:40.611Z,1010.18
2019-05-16T11:37:40.650Z,1010.2
2019-05-16T11:38:40.670Z,1010.2
2019-05-16T11:39:40.690Z,1010.2
2019-05-16T11:40:40.709Z,1010.21
2019-05-16T11:41:40.741Z,1010.19
2019-05-16T11:42:40.749Z,1010.2
2019-05-16T11:43:40.775Z,1010.19
2019-05-16T11:44:40.788Z,1010.19
2019-05-16T11:45:40.808Z,1010.21
2019-05-16T11:47:40.847Z,1010.2
2019-05-16T11:48:40.866Z,1010.14
2019-05-16T11:49:40.889Z,1010.12
2019-05-16T11:50:40.907Z,1010.17
2019-05-16T11:51:40.929Z,1010.14
2019-05-16T11:52:41.291Z,1010.1
2019-05-16T11:53:40.966Z,1010.08
2019-05-16T11:54:40.988Z,1010.02
2019-05-16T11:55:51.509Z,1010.07
2019-05-16T11:56:41.026Z,1010.05
2019-05-16T11:57:41.046Z,1010.1
2019-05-16T11:58:41.066Z,1010.11
2019-05-16T11:59:41.086Z,1010.14
2019-05-16T12:00:41.108Z,1010.17
2019-05-16T12:01:41.126Z,1010.16
2019-05-16T12:03:41.166Z,1010.2
2019-05-16T12:04:41.186Z,1010.19
2019-05-16T12:05:41.207Z,1010.21
2019-05-16T12:06:41.229Z,1010.18
2019-05-16T12:07:44.164Z,1010.16
2019-05-16T12:08:41.273Z,1010.2
2019-05-16T12:09:46.770Z,1010.21
2019-05-16T12:10:41.307Z,1010.27
2019-05-16T12:11:41.328Z,1010.22
2019-05-16T12:12:41.348Z,1010.25
2019-05-16T12:13:41.367Z,1010.24
2019-05-16T12:14:41.391Z,1010.25
2019-05-16T12:15:41.412Z,1010.23
2019-05-16T12:16:41.430Z,1010.23
2019-05-16T12:17:41.449Z,1010.2
2019-05-16T12:19:43.847Z,1010.19
2019-05-16T12:20:41.510Z,1010.18
2019-05-16T12:21:41.531Z,1010.13
2019-05-16T12:22:41.561Z,1010.13
2019-05-16T12:23:41.570Z,1010.14
2019-05-16T12:24:41.689Z,1010.18
2019-05-16T12:25:41.614Z,1010.2
2019-05-16T12:26:41.632Z,1010.22
2019-05-16T12:27:42.436Z,1010.22
2019-05-16T12:28:41.671Z,1010.23
2019-05-16T12:29:41.698Z,1010.23
2019-05-16T12:30:41.712Z,1010.2
2019-05-16T12:31:54.093Z,1010.18
2019-05-16T12:32:41.753Z,1010.19
2019-05-16T12:34:41.794Z,1010.19
2019-05-16T12:35:41.814Z,1010.2
2019-05-16T12:36:41.835Z,1010.15
2019-05-16T12:37:41.855Z,1010.18
2019-05-16T12:38:41.877Z,1010.18
2019-05-16T12:39:41.895Z,1010.16
2019-05-16T12:40:41.918Z,1010.23
2019-05-16T12:41:41.939Z,1010.27
2019-05-16T12:42:41.956Z,1010.23
2019-05-16T12:43:48.458Z,1010.23
2019-05-16T12:44:41.997Z,1010.26
2019-05-16T12:45:42.021Z,1010.25
2019-05-16T12:46:42.038Z,1010.27
2019-05-16T12:47:42.058Z,1010.29
2019-05-16T12:48:42.079Z,1010.21
2019-05-16T12:49:42.100Z,1010.25
2019-05-16T12:50:42.120Z,1010.19
2019-05-16T12:51:42.140Z,1010.2
2019-05-16T12:52:42.162Z,1010.16
2019-05-16T12:53:42.180Z,1010.17
2019-05-16T12:54:42.200Z,1010.18
2019-05-16T12:55:42.223Z,1010.17
2019-05-16T12:56:42.248Z,1010.17
2019-05-16T12:57:42.261Z,1010.18
2019-05-16T12:58:42.731Z,1010.19
2019-05-16T12:59:49.894Z,1010.22
2019-05-16T13:00:43.956Z,1010.25